T.Hum Temperature Refroidissement Temperature Temperature Humidite Point de Vitesse         Temperature Humidite Intervalle
Date Heure Index Exterieure Vent    Haut    Bas     Exterieure Rosee   Vent Haut Dir Pluie Barometre Interieure Interieure Archive
29/08/2006  0:00 13.4 13.4 13.4 13.5 13.4 92 12.2 6.4 12.9 W 0 1010.7 22.4 55 10
29/08/2006  0:10 13.5 13.5 13.5 13.6 13.4 92 12.2 6.4 12.9 W 0 1010.7 22.4 55 10
29/08/2006  0:20 13.6 13.6 13.6 13.6 13.5 92 12.3 6.4 12.9 W 0 1010.7 22.4 55 10
29/08/2006  0:30 13.5 13.5 13.5 13.6 13.5 92 12.2 6.4 12.9 W 0 1010.7 22.4 54 10
29/08/2006  0:40 13.5 13.5 13.5 13.6 13.4 92 12.2 6.4 17.7 W 0 1010.6 22.4 54 10
29/08/2006  0:50 13.4 13.4 13.4 13.6 13.3 92 12.2 4.8 12.9 W 0 1010.7 22.4 54 10
29/08/2006  1:00 13.3 13.3 13.3 13.4 13.2 92 12.1 4.8 11.3 W 0 1010.6 22.4 54 10
29/08/2006  1:10 13.3 13.3 13.3 13.3 13.2 92 12 4.8 11.3 W 0 1010.6 22.4 54 10
29/08/2006  1:20 13.2 13.2 13.2 13.3 13.1 93 12.1 4.8 11.3 WSW 0 1010.6 22.4 54 10
29/08/2006  1:30 13.1 13.1 13.1 13.1 13 93 11.9 4.8 9.7 W 0 1010.6 22.4 54 10
29/08/2006  1:40 13.1 13.1 13.1 13.2 13.1 93 12 4.8 11.3 W 0 1010.6 22.4 54 10
29/08/2006  1:50 13.1 13.1 13.1 13.2 13 93 12 4.8 12.9 W 0 1010.7 22.4 54 10
29/08/2006  2:00 13 13 13 13.1 12.9 93 11.9 3.2 8 WSW 0 1010.4 22.3 54 10
29/08/2006  2:10 12.9 12.9 12.9 13 12.9 94 12 4.8 9.7 W 0 1010.5 22.3 54 10
29/08/2006  2:20 12.9 12.9 12.9 13 12.9 94 12 3.2 8 WSW 0 1010.4 22.3 54 10
29/08/2006  2:30 12.8 12.8 12.8 12.9 12.7 94 11.8 3.2 9.7 W 0 1010.4 22.3 54 10
29/08/2006  2:40 12.6 12.6 12.6 12.7 12.5 94 11.7 3.2 9.7 WSW 0 1010.3 22.3 53 10
29/08/2006  2:50 12.6 12.6 12.6 12.6 12.5 95 11.8 4.8 11.3 WSW 0 1010.5 22.3 53 10
29/08/2006  3:00 12.5 12.5 12.5 12.6 12.4 95 11.7 3.2 9.7 WSW 0 1010.4 22.3 53 10
29/08/2006  3:10 12.4 12.4 12.4 12.5 12.4 95 11.7 4.8 9.7 SW 0 1010.4 22.3 53 10
29/08/2006  3:20 12.3 12.3 12.3 12.4 12.3 96 11.7 3.2 9.7 WSW 0 1010.4 22.3 53 10
29/08/2006  3:30 12.3 12.3 12.3 12.4 12.2 96 11.7 3.2 9.7 WSW 0 1010.3 22.2 53 10
29/08/2006  3:40 12.3 12.3 12.3 12.3 12.3 97 11.9 4.8 14.5 WSW 0 1010.5 22.2 53 10
29/08/2006  3:50 12.3 12.3 12.3 12.4 12.3 97 11.9 4.8 12.9 WSW 0 1010.3 22.2 53 10
29/08/2006  4:00 12.3 12.3 12.3 12.4 12.3 97 11.9 4.8 12.9 WSW 0 1010.3 22.2 53 10
29/08/2006  4:10 12.3 12.3 12.3 12.4 12.3 97 11.9 1.6 8 WSW 0 1010.2 22.2 53 10
29/08/2006  4:20 12.3 12.3 12.3 12.4 12.3 98 12.1 3.2 9.7 WSW 0 1010.2 22.1 53 10
29/08/2006  4:30 12.3 12.3 12.3 12.4 12.3 98 12.1 3.2 11.3 WSW 0 1010 22.1 53 10
29/08/2006  4:40 12.3 12.3 12.3 12.3 12.2 98 12 3.2 9.7 SSW 0 1010 22.1 53 10
29/08/2006  4:50 12.3 12.3 12.3 12.3 12.2 98 12 3.2 11.3 SSW 0 1009.8 22.1 53 10
29/08/2006  5:00 12.3 12.3 12.3 12.3 12.2 98 12 4.8 12.9 SSW 0 1009.9 22.1 53 10
29/08/2006  5:10 12.3 12.3 12.3 12.3 12.3 99 12.1 1.6 8 SW 0 1009.8 22.1 53 10
29/08/2006  5:20 12.3 12.3 12.3 12.3 12.3 98 12.1 4.8 12.9 SW 0 1009.8 22.1 53 10
29/08/2006  5:30 12.3 12.3 12.3 12.3 12.3 98 12.1 3.2 11.3 S 0 1009.9 22.1 53 10
29/08/2006  5:40 12.3 12.3 12.3 12.3 12.2 99 12.1 3.2 9.7 SW 0 1009.9 22 53 10
29/08/2006  5:50 12.3 12.3 12.3 12.3 12.2 99 12.2 3.2 9.7 WSW 0 1009.8 22 53 10
29/08/2006  6:00 12.3 12.3 12.3 12.3 12.2 99 12.1 3.2 8 SW 0 1009.6 22 53 10
29/08/2006  6:10 12.3 12.3 12.3 12.3 12.2 99 12.1 3.2 6.4 SW 0 1009.7 22 53 10
29/08/2006  6:20 12.3 12.3 12.3 12.3 12.2 99 12.1 1.6 6.4 WSW 0 1009.8 21.9 53 10
29/08/2006  6:30 12.3 12.3 12.3 12.4 12.3 100 12.3 4.8 14.5 SW 0 1009.6 21.9 53 10
29/08/2006  6:40 12.4 12.4 12.4 12.6 12.4 99 12.3 3.2 9.7 S 0 1009.5 21.9 53 10
29/08/2006  6:50 12.6 12.6 12.6 12.7 12.5 99 12.4 4.8 12.9 SW 0 1009.6 21.9 54 10
29/08/2006  7:00 12.7 12.7 12.7 12.8 12.6 99 12.5 3.2 9.7 SW 0 1009.5 21.9 54 10
29/08/2006  7:10 12.7 12.7 12.7 12.8 12.7 98 12.4 4.8 11.3 SSW 0 1009.4 21.9 54 10
29/08/2006  7:20 12.8 12.8 12.8 12.8 12.7 98 12.4 4.8 12.9 SSW 0 1009.4 21.9 54 10
29/08/2006  7:30 12.8 12.8 12.8 12.9 12.8 98 12.5 4.8 11.3 S 0 1009.3 21.9 55 10
29/08/2006  7:40 12.9 12.9 12.9 13 12.8 98 12.6 3.2 12.9 WSW 0 1009.3 21.9 54 10
29/08/2006  7:50 13.1 13.1 13.1 13.2 12.9 98 12.7 4.8 9.7 SW 0 1009.2 21.9 54 10
29/08/2006  8:00 13.2 13.2 13.2 13.3 13.1 97 12.8 4.8 11.3 WSW 0 1009.2 21.9 54 10
29/08/2006  8:10 13.3 13.3 13.3 13.4 13.2 97 12.9 3.2 11.3 WSW 0 1009.3 21.9 54 10
29/08/2006  8:20 13.4 13.4 13.4 13.4 13.3 97 12.9 3.2 11.3 WSW 0 1009.2 21.9 54 10
29/08/2006  8:30 13.4 13.4 13.4 13.5 13.3 97 12.9 4.8 12.9 SW 0 1009.1 21.9 54 10
29/08/2006  8:40 13.4 13.4 13.4 13.5 13.4 97 13 4.8 14.5 WSW 0 1009 21.9 54 10
29/08/2006  8:50 13.5 13.5 13.5 13.6 13.4 97 13.1 6.4 14.5 SW 0 1009.1 21.9 54 10
29/08/2006  9:00 13.6 13.6 13.6 13.7 13.5 96 13 4.8 14.5 SW 0 1009.1 21.9 54 10
29/08/2006  9:10 13.8 13.8 13.8 13.8 13.7 96 13.2 4.8 16.1 WSW 0 1009.1 21.9 55 10
29/08/2006  9:20 13.9 13.9 13.9 14 13.8 95 13.1 4.8 11.3 WSW 0 1009.3 21.9 55 10
29/08/2006  9:30 13.9 13.9 12.9 14.1 13.9 94 13 8 20.9 WSW 0 1009.2 21.9 55 10
29/08/2006  9:40 13.9 13.9 13.9 14 13.9 94 13 6.4 16.1 WSW 0 1009.3 21.9 55 10
29/08/2006  9:50 13.9 13.9 13.9 14 13.8 95 13.1 4.8 11.3 W 0.2 1009.4 21.9 54 10
29/08/2006 10:00 13.8 13.8 13.8 13.9 13.7 96 13.2 4.8 11.3 W 0 1009.5 21.9 54 10
29/08/2006 10:10 13.7 13.7 13.7 13.8 13.5 97 13.2 6.4 20.9 WSW 0.4 1009.6 21.9 54 10
29/08/2006 10:20 13.4 13.4 13.4 13.6 13.3 98 13.1 6.4 16.1 W 0.4 1009.5 21.9 55 10
29/08/2006 10:30 13.3 13.3 11.4 13.4 12.9 98 12.9 9.7 19.3 W 0.4 1009.6 21.9 55 10
29/08/2006 10:40 12.4 12.4 11.3 12.9 12 97 12 8 19.3 SW 1 1009.4 21.9 55 10
29/08/2006 10:50 11.8 11.8 9.9 12.1 11.6 99 11.7 9.7 19.3 SSW 0.6 1009 21.9 55 10
29/08/2006 11:00 11.8 11.8 10.7 12 11.7 100 11.8 8 20.9 W 0 1009.4 21.9 55 10
29/08/2006 11:10 12.1 12.1 12.1 12.3 11.9 100 12.1 6.4 12.9 SW 0.2 1009.1 21.9 56 10
29/08/2006 11:20 12.4 12.4 12.4 12.6 12.2 100 12.4 3.2 9.7 SW 0 1009.2 21.9 56 10
29/08/2006 11:30 12.8 12.8 12.8 13 12.6 100 12.8 4.8 11.3 SW 0 1009 21.9 56 10
29/08/2006 11:40 13.1 13.1 13.1 13.3 12.9 100 13.1 3.2 12.9 S 0 1009.1 21.9 56 10
29/08/2006 11:50 13.4 13.4 13.4 13.6 13.3 100 13.4 4.8 14.5 SSW 0 1008.8 21.9 56 10
29/08/2006 12:00 13.7 13.7 13.7 13.8 13.6 100 13.7 4.8 16.1 SW 0 1008.8 21.9 56 10
29/08/2006 12:10 13.8 13.8 13.8 13.9 13.8 100 13.8 6.4 17.7 WSW 0 1008.8 21.8 56 10
29/08/2006 12:20 13.9 13.9 13.9 14.1 13.8 100 13.9 6.4 17.7 SW 0 1008.6 21.9 56 10
29/08/2006 12:30 14.1 14.1 13 14.2 14 98 13.7 8 17.7 SW 0 1008.6 21.9 56 10
29/08/2006 12:40 14.1 14.1 14.1 14.2 14 99 13.9 4.8 11.3 WSW 0 1008.6 21.9 56 10
29/08/2006 12:50 14.1 14.1 14.1 14.2 14 99 13.9 6.4 14.5 SSW 0 1008.4 21.9 56 10
29/08/2006 13:00 14.2 14.2 13.1 14.3 14 99 14 8 17.7 SSW 0 1008.3 21.9 56 10
29/08/2006 13:10 14.6 14.6 13.6 14.9 14.3 96 14 8 17.7 SW 0 1008.3 22 56 10
29/08/2006 13:20 14.8 14.8 13.2 14.9 14.7 90 13.2 9.7 19.3 W 0 1008.3 22 56 10
29/08/2006 13:30 14.9 14.9 14.9 14.9 14.8 89 13.1 6.4 16.1 WSW 0 1008.1 22 56 10
29/08/2006 13:40 15 15 15 15.2 14.9 89 13.2 6.4 16.1 WSW 0 1008.2 22 55 10
29/08/2006 13:50 15.1 15.1 14.1 15.2 15 88 13.1 8 19.3 SW 0 1007.9 22 55 10
29/08/2006 14:00 15.1 15.1 15.1 15.2 14.9 88 13.1 6.4 16.1 WSW 0 1008.1 22 55 10
29/08/2006 14:10 14.9 14.9 13.3 15.1 14.8 86 12.6 9.7 19.3 WSW 0 1008.1 22 55 10
29/08/2006 14:20 14.7 14.7 13.7 14.8 14.5 85 12.2 8 19.3 WSW 0 1008 21.9 55 10
29/08/2006 14:30 14.5 14.5 14.5 14.7 14.4 87 12.4 6.4 16.1 W 0 1008.1 21.9 55 10
29/08/2006 14:40 14.7 14.7 14.7 14.9 14.6 87 12.6 4.8 16.1 WSW 0 1008.2 21.9 55 10
29/08/2006 14:50 14.7 14.7 13.7 14.9 14.6 85 12.2 8 16.1 W 0 1008.1 21.9 54 10
29/08/2006 15:00 14.6 14.6 13.6 14.7 14.5 84 11.9 8 19.3 WSW 0 1008 21.9 54 10
29/08/2006 15:10 14.5 14.5 14.5 14.6 14.4 85 12 6.4 20.9 WSW 0 1008 21.9 54 10
29/08/2006 15:20 14.4 14.4 14.4 14.5 14.3 86 12.1 6.4 14.5 WSW 0.2 1008.1 21.8 54 10
29/08/2006 15:30 14.3 14.3 14.3 14.3 14.2 86 11.9 6.4 16.1 WSW 0 1008.1 21.8 54 10
29/08/2006 15:40 14.2 14.2 13.2 14.3 14.2 86 11.9 8 17.7 W 0 1007.9 21.8 54 10
29/08/2006 15:50 14.6 14.6 13.6 14.8 14.3 84 11.9 8 20.9 W 0 1008 21.9 54 10
29/08/2006 16:00 15 15 14 15.1 14.8 83 12.2 8 20.9 WSW 0 1007.9 21.9 54 10
29/08/2006 16:10 15.1 15.1 13.4 15.2 15 82 12 9.7 19.3 W 0 1007.9 21.9 54 10
29/08/2006 16:20 14.9 14.9 13.9 15.1 14.8 84 12.3 8 14.5 WSW 0 1007.9 21.9 53 10
29/08/2006 16:30 14.8 14.8 13.8 14.9 14.7 84 12.1 8 16.1 WSW 0 1007.9 21.8 53 10
29/08/2006 16:40 14.6 14.6 14.6 14.7 14.6 86 12.3 6.4 14.5 WSW 0 1007.9 21.8 53 10
29/08/2006 16:50 14.8 14.8 13.8 15 14.6 85 12.3 8 19.3 WSW 0 1008.2 21.8 53 10
29/08/2006 17:00 15.1 15.1 14.1 15.2 15 85 12.6 8 14.5 WSW 0 1008.3 21.8 53 10
29/08/2006 17:10 15.1 15.1 14.1 15.1 14.9 87 12.9 8 16.1 W 0 1008.3 21.8 54 10
29/08/2006 17:20 15.2 15.2 13.6 15.3 15 87 13 9.7 19.3 W 0 1008.5 21.8 53 10
29/08/2006 17:30 15.2 15.2 14.3 15.3 15.1 89 13.4 8 20.9 W 0 1008.5 21.8 54 10
29/08/2006 17:40 15.2 15.2 13.6 15.2 15.1 87 13 9.7 19.3 W 0 1008.6 21.8 54 10
29/08/2006 17:50 15.1 15.1 14.1 15.2 14.9 89 13.3 8 22.5 W 0 1008.8 21.8 54 10
29/08/2006 18:00 14.8 14.8 13.8 14.9 14.6 90 13.2 8 17.7 W 0 1008.9 21.7 54 10
29/08/2006 18:10 14.4 14.4 14.4 14.6 14.3 91 13 6.4 12.9 W 0 1008.8 21.7 53 10
29/08/2006 18:20 14.2 14.2 14.2 14.3 14.1 91 12.7 6.4 14.5 WSW 0 1009.1 21.7 54 10
29/08/2006 18:30 14 14 14 14.1 13.9 93 12.9 6.4 14.5 WSW 0 1009.2 21.7 54 10
29/08/2006 18:40 13.9 13.9 13.9 13.9 13.9 94 13 4.8 9.7 W 0 1009.5 21.7 54 10
29/08/2006 18:50 13.9 13.9 13.9 13.9 13.8 94 12.9 3.2 12.9 W 0 1009.8 21.7 55 10
29/08/2006 19:00 13.8 13.8 13.8 13.9 13.7 94 12.9 3.2 9.7 W 0 1009.8 21.8 55 10
29/08/2006 19:10 13.7 13.7 13.7 13.8 13.7 95 12.9 4.8 12.9 W 0 1009.9 21.8 55 10
29/08/2006 19:20 13.6 13.6 13.6 13.7 13.5 96 13 3.2 8 W 0 1010 21.9 55 10
29/08/2006 19:30 13.4 13.4 13.4 13.5 13.3 97 13 3.2 9.7 W 0 1010.2 21.9 55 10
29/08/2006 19:40 13.3 13.3 13.3 13.4 13.3 97 12.9 1.6 6.4 WSW 0 1010.4 21.9 56 10
29/08/2006 19:50 13.3 13.3 13.3 13.4 13.2 95 12.6 4.8 11.3 W 0 1010.4 21.9 56 10
29/08/2006 20:00 13.4 13.4 13.4 13.6 13.4 94 12.5 4.8 9.7 W 0 1010.6 21.9 56 10
29/08/2006 20:10 13.5 13.5 13.5 13.6 13.4 94 12.6 3.2 11.3 W 0 1010.7 21.9 57 10
29/08/2006 20:20 13.4 13.4 13.4 13.4 13.3 96 12.8 1.6 12.9 WSW 0 1010.7 21.9 57 10
29/08/2006 20:30 13.3 13.3 13.3 13.3 13.3 97 12.9 3.2 11.3 WSW 0 1010.9 21.9 57 10
29/08/2006 20:40 13.3 13.3 13.3 13.4 13.3 97 12.9 4.8 12.9 WSW 0 1011.1 21.9 57 10
29/08/2006 20:50 13.4 13.4 13.4 13.4 13.4 97 13 6.4 14.5 SW 0 1011.1 21.8 57 10
29/08/2006 21:00 13.3 13.3 13.3 13.4 13.2 97 12.9 6.4 14.5 SW 0 1011.2 21.7 57 10
29/08/2006 21:10 13.3 13.3 13.3 13.4 13.3 97 12.9 6.4 16.1 WSW 0 1011.4 21.7 57 10
29/08/2006 21:20 13.4 13.4 13.4 13.5 13.4 96 12.8 6.4 14.5 WSW 0 1011.6 21.7 57 10
29/08/2006 21:30 13.4 13.4 13.4 13.5 13.4 96 12.8 4.8 11.3 WNW 0 1011.6 21.7 57 10
29/08/2006 21:40 13.3 13.3 13.3 13.4 13.2 96 12.7 4.8 11.3 W 0 1011.8 21.7 57 10
29/08/2006 21:50 13.2 13.2 13.2 13.3 13.1 96 12.6 3.2 11.3 WNW 0 1011.8 21.7 57 10
29/08/2006 22:00 13.1 13.1 13.1 13.1 13 97 12.6 4.8 14.5 W 0 1012 21.7 57 10
29/08/2006 22:10 13.1 13.1 13.1 13.1 13 97 12.6 6.4 16.1 W 0 1012.1 21.7 57 10
29/08/2006 22:20 13.1 13.1 12 13.1 13.1 96 12.5 8 17.7 W 0 1012.2 21.7 57 10
29/08/2006 22:30 13 13 13 13.1 12.9 97 12.6 6.4 12.9 W 0 1012.3 21.7 57 10
29/08/2006 22:40 12.9 12.9 12.9 13 12.8 97 12.4 4.8 14.5 W 0 1012.3 21.6 57 10
29/08/2006 22:50 12.7 12.7 12.7 12.8 12.7 97 12.3 4.8 12.9 W 0 1012.5 21.5 57 10
29/08/2006 23:00 12.6 12.6 12.6 12.7 12.6 97 12.2 4.8 12.9 WNW 0 1012.6 21.4 56 10
29/08/2006 23:10 12.5 12.5 12.5 12.6 12.4 97 12.1 4.8 11.3 WNW 0 1012.7 21.4 56 10
29/08/2006 23:20 12.5 12.5 12.5 12.6 12.4 97 12.1 3.2 8 NW 0 1012.7 21.4 56 10
29/08/2006 23:30 12.4 12.4 12.4 12.5 12.4 96 11.8 3.2 9.7 WNW 0 1012.8 21.4 56 10
29/08/2006 23:40 12.4 12.4 12.4 12.5 12.3 96 11.8 3.2 9.7 NW 0 1012.9 21.4 56 10
29/08/2006 23:50 12.3 12.3 12.3 12.4 12.2 96 11.7 1.6 6.4 NW 0 1013 21.4 56 10
29/08/2006
Température maxi 15.3
Température mini 11.6
Température moyenne 13.43
T° moyenne (Tn+Tx)/2 13.45
Index Temp/Hum. Moyen 13.43
Index Temp/Hum. Maxi 15.2
T°C au vent moyenne 13.19
T°C au vent mini 9.9
Amplitude Tx-Tn 3.7
Humidité maxi 100%
Humidité mini 82%
Humidité moyenne 94.4%
Point de rosée maxi 14.0
Point de rosée mini 11.7
Point de rosée moyen 12.53
Vent  moy maxi (km/h) sur 10 mn 9.7
Vent  moyen 5.36
Direction dominante WSW
Rafale (km/h) maxi 22.5
Direction du vent W
Rafales (km/h) moy 13.54
Pluie totale (mm) 3.4
Durée des pluies (minutes) 80
Intensité maxi (mm/h) 6.0
Pression maxi 1013.0
Pression mini 1007.9
Pression moyenne 1009.8
Variation pression 5.1
Rafales > 36 km/h 0
Rafales > 57,6 km/h 0
Rafales > 100,8 km/h 0
Nb pluie >0,2 mm 1
Nb pluie > 2 mm 1
Nb pluie >10 mm 0
Nb pluie > 20 mm 0
Tx < 0 0
Tx > 25 0
Tx > 30 0
Tx > 35 0
Tx > 40 0
Tn < 0 0
Tn < -5 0
Tn < -10 0
Tn < -15 0
T moy < 0 0
T moy < -5 0
T moy > 20 0
T moy > 25 0
T moy > 30 0
Grêle  
Grésil  
Brouillard  
Brume  
Orage 1
Neige  
Epaisseur de neige (cm)  
Direction Nb
N 0
NNE 0
NE 0
ENE 0
E 0
ESE 0
SE 0
SSE 0
S 4
SSW 9
SW 24
WSW 52
W 47
WNW 5
NW 3
NNW 0
Nb Maxi Mini
WSW 52           219 pts             36 pts
144
Vitesse du vent maxi
22.5
Max Min Moy de tous les relevés Moy Tn+Tx/2 Index chaleur maxi Index chaleur moyen T°C au vent mini  T°C au vent moyenne  Tx-Tn Relative mini Relative maxi Relative moyenne Point de rosée maxi Point de rosée mini Point de rosée moyen Vent  moy maxi (10mn) Vent  moyen (24h) Direction dominante Rafale (km/h) maxi Direction rafale maxi Moyenne des rafales Pluie du jour (mm) Durée des pluies (mn) Intensité maxi (mm/h) Pression maxi Pression mini Pression moyenne Variations Epaisseur neige Orage Grêle Brouillard Neige
15.3 11.6 13.4 13.5 15.2 13.4 9.9 13.2 3.7 82 100 94.4 14.0 11.7 12.5 9.7 5.4 WSW 22.5 W 13.5 3.4 80 6.0 1013.0 1007.9 1009.8 5.1 0.0 1 0 0 0